Time;durP1;ratioP1;P1;durP2;ratioP2;P2;SDS_P1;SDS_P2;PMS_P1;PMS_P2;Temp;Humidity;BMP_temperature;BMP_pressure;BME280_temperature;BME280_humidity;BME280_pressure;Samples;Min_cycle;Max_cycle;Signal;HPM_P1;HPM_P2
2024/01/22 00:00:31;;;;;;;5.63;2.67;;;9.10;99.90;;;;;;5094053;28;20028;-63
2024/01/22 00:02:57;;;;;;;7.18;2.90;;;9.10;99.90;;;;;;5093699;28;20080;-62
2024/01/22 00:05:22;;;;;;;6.28;2.72;;;9.20;99.90;;;;;;5093861;28;20039;-65
2024/01/22 00:07:48;;;;;;;5.72;2.55;;;9.20;99.90;;;;;;5093818;28;20088;-64
2024/01/22 00:10:13;;;;;;;6.35;2.88;;;9.20;99.90;;;;;;5093816;28;20060;-64
2024/01/22 00:12:39;;;;;;;5.68;3.10;;;9.20;99.90;;;;;;5093861;28;20032;-65
2024/01/22 00:15:05;;;;;;;11.02;3.08;;;9.20;99.90;;;;;;5093579;28;20036;-64
2024/01/22 00:17:30;;;;;;;6.78;3.13;;;9.20;99.90;;;;;;5093802;28;20063;-65
2024/01/22 00:19:56;;;;;;;6.78;3.33;;;9.30;99.90;;;;;;5093383;28;20025;-65
2024/01/22 00:22:22;;;;;;;5.88;2.63;;;9.30;99.90;;;;;;5093604;28;20017;-65
2024/01/22 00:24:47;;;;;;;5.50;2.35;;;9.40;99.90;;;;;;5093558;28;20032;-63
2024/01/22 00:27:13;;;;;;;6.70;2.90;;;9.40;99.90;;;;;;5093473;28;20033;-65
2024/01/22 00:29:38;;;;;;;4.60;2.75;;;9.40;99.90;;;;;;5093431;28;20043;-63
2024/01/22 00:32:04;;;;;;;4.32;2.28;;;9.40;99.90;;;;;;5093381;28;20047;-63
2024/01/22 00:34:30;;;;;;;6.13;2.78;;;9.50;99.90;;;;;;5092027;28;20029;-63
2024/01/22 00:36:56;;;;;;;5.07;3.05;;;9.40;99.90;;;;;;5093222;28;20025;-63
2024/01/22 00:39:21;;;;;;;5.05;2.40;;;9.40;99.90;;;;;;5093307;28;20112;-65
2024/01/22 00:41:47;;;;;;;6.05;3.03;;;9.50;99.90;;;;;;5093230;28;20025;-64
2024/01/22 00:44:13;;;;;;;5.43;2.60;;;9.50;99.90;;;;;;5093144;28;20046;-63
2024/01/22 00:46:38;;;;;;;6.22;2.80;;;9.60;99.90;;;;;;5093123;28;20513;-64
2024/01/22 00:49:04;;;;;;;5.95;2.70;;;9.60;99.90;;;;;;5092934;28;20033;-65
2024/01/22 00:51:29;;;;;;;6.88;2.70;;;9.60;99.90;;;;;;5093061;28;20028;-65
2024/01/22 00:53:55;;;;;;;5.15;2.95;;;9.60;99.90;;;;;;5092919;28;20033;-64
2024/01/22 00:56:21;;;;;;;4.45;2.80;;;9.60;99.90;;;;;;5091959;28;20033;-63
2024/01/22 00:58:47;;;;;;;4.78;2.00;;;9.70;99.90;;;;;;5092932;28;20080;-65
2024/01/22 01:01:12;;;;;;;3.90;2.42;;;9.70;99.90;;;;;;5092925;28;20024;-62
2024/01/22 01:03:38;;;;;;;6.22;2.50;;;9.70;99.90;;;;;;5092346;28;20082;-64
2024/01/22 01:06:04;;;;;;;6.22;3.30;;;9.70;99.90;;;;;;5092804;28;20032;-63
2024/01/22 01:08:30;;;;;;;4.40;2.35;;;9.80;99.90;;;;;;5092823;28;20033;-63
2024/01/22 01:10:56;;;;;;;4.30;2.42;;;9.80;99.90;;;;;;5092787;28;20029;-64
2024/01/22 01:13:22;;;;;;;3.65;2.40;;;9.80;99.90;;;;;;5092651;28;20025;-65
2024/01/22 01:15:47;;;;;;;5.13;2.15;;;9.90;99.90;;;;;;5092697;28;20084;-64
2024/01/22 01:18:13;;;;;;;8.07;2.15;;;9.90;99.90;;;;;;5092603;28;20048;-65
2024/01/22 01:20:39;;;;;;;4.97;2.80;;;9.90;99.90;;;;;;5091688;28;20088;-64
2024/01/22 01:23:04;;;;;;;4.10;2.15;;;9.90;99.90;;;;;;5092609;28;20013;-64
2024/01/22 01:25:30;;;;;;;4.68;2.78;;;9.90;99.90;;;;;;5092591;28;20040;-63
2024/01/22 01:27:56;;;;;;;4.10;2.17;;;10.00;99.90;;;;;;5092638;28;20104;-64
2024/01/22 01:30:21;;;;;;;2.75;1.73;;;10.00;99.90;;;;;;5092544;28;20040;-63
2024/01/22 01:32:47;;;;;;;6.13;2.35;;;10.00;99.90;;;;;;5092339;28;20028;-63
2024/01/22 01:35:13;;;;;;;3.55;2.05;;;10.00;99.90;;;;;;5092290;28;20028;-64
2024/01/22 01:37:38;;;;;;;4.50;2.05;;;10.10;99.90;;;;;;5092434;28;20017;-63
2024/01/22 01:40:04;;;;;;;3.13;1.90;;;10.10;99.90;;;;;;5092444;28;20392;-63
2024/01/22 01:42:30;;;;;;;5.68;2.40;;;10.10;99.90;;;;;;5092455;28;20150;-64
2024/01/22 01:44:56;;;;;;;3.97;2.10;;;10.10;99.90;;;;;;5091556;28;20028;-64
2024/01/22 01:47:21;;;;;;;4.80;2.47;;;10.20;99.90;;;;;;5096605;28;20039;-64
2024/01/22 01:49:47;;;;;;;4.05;2.30;;;10.20;99.90;;;;;;5096463;28;20436;-65
2024/01/22 01:52:14;;;;;;;4.55;2.10;;;10.30;99.90;;;;;;5096533;28;20020;-64
2024/01/22 01:54:42;;;;;;;5.30;1.90;;;10.30;99.90;;;;;;5096383;28;20024;-65
2024/01/22 01:57:08;;;;;;;2.65;2.10;;;10.40;99.90;;;;;;5096481;28;20017;-64
2024/01/22 01:59:41;;;;;;;3.50;1.80;;;10.40;99.90;;;;;;5096411;28;20021;-64
2024/01/22 02:02:06;;;;;;;3.47;2.30;;;10.40;99.90;;;;;;5096304;28;20035;-64
2024/01/22 02:04:32;;;;;;;3.28;1.85;;;10.40;99.90;;;;;;5095906;28;20068;-64
2024/01/22 02:06:58;;;;;;;3.85;1.90;;;10.40;99.90;;;;;;5096181;28;20104;-64
2024/01/22 02:09:53;;;;;;;2.88;2.08;;;10.40;99.90;;;;;;5096196;28;20166;-65
2024/01/22 02:12:19;;;;;;;2.90;1.95;;;10.40;99.90;;;;;;5096126;28;20028;-65
2024/01/22 02:14:46;;;;;;;3.38;1.85;;;10.50;99.90;;;;;;5095927;28;20028;-63
2024/01/22 02:17:15;;;;;;;3.00;1.80;;;10.50;99.90;;;;;;5096122;28;20032;-64
2024/01/22 02:19:41;;;;;;;3.75;2.00;;;10.50;99.90;;;;;;5095864;28;20029;-65
2024/01/22 02:22:07;;;;;;;4.28;2.05;;;10.50;99.90;;;;;;5095938;28;20025;-64
2024/01/22 02:24:32;;;;;;;3.97;2.22;;;10.50;99.90;;;;;;5095892;28;20060;-65
2024/01/22 02:26:58;;;;;;;5.97;1.90;;;10.50;99.90;;;;;;5095731;28;20032;-64
2024/01/22 02:29:24;;;;;;;5.68;1.80;;;10.60;99.90;;;;;;5095900;28;20025;-64
2024/01/22 02:31:52;;;;;;;4.38;2.10;;;10.60;99.90;;;;;;5095780;28;20032;-66
2024/01/22 02:34:18;;;;;;;4.82;2.20;;;10.60;99.90;;;;;;5095472;28;20040;-64
2024/01/22 02:36:45;;;;;;;2.92;1.95;;;10.60;99.90;;;;;;5095628;28;20512;-64
2024/01/22 02:39:11;;;;;;;3.92;1.80;;;10.60;99.90;;;;;;5094529;28;20089;-64
2024/01/22 02:41:37;;;;;;;2.42;1.88;;;10.70;99.90;;;;;;5095374;28;20012;-65
2024/01/22 02:44:03;;;;;;;3.10;1.70;;;10.70;99.90;;;;;;5095451;28;20047;-65
2024/01/22 02:46:29;;;;;;;4.55;1.80;;;10.70;99.90;;;;;;5095395;28;20024;-65
2024/01/22 02:48:55;;;;;;;3.60;2.00;;;10.80;99.90;;;;;;5095368;28;20024;-65
2024/01/22 02:51:21;;;;;;;3.97;1.98;;;10.80;99.90;;;;;;5095319;28;20080;-64
2024/01/22 02:53:48;;;;;;;4.30;1.70;;;10.80;99.90;;;;;;5095210;28;20027;-65
2024/01/22 02:56:18;;;;;;;2.47;1.40;;;10.70;99.90;;;;;;5094956;28;20025;-65
2024/01/22 02:58:44;;;;;;;3.38;1.95;;;10.70;99.90;;;;;;5094511;28;20025;-65
2024/01/22 03:01:09;;;;;;;4.90;2.15;;;10.60;99.90;;;;;;5095182;28;20432;-64
2024/01/22 03:03:35;;;;;;;3.28;2.13;;;10.60;99.90;;;;;;5094927;28;20052;-63
2024/01/22 03:06:00;;;;;;;5.20;2.50;;;10.60;99.90;;;;;;5095092;28;20024;-64
2024/01/22 03:08:26;;;;;;;3.10;2.00;;;10.60;99.90;;;;;;5095060;28;20033;-65
2024/01/22 03:10:52;;;;;;;3.70;2.25;;;10.60;99.90;;;;;;5094931;28;20036;-64
2024/01/22 03:13:17;;;;;;;4.43;2.20;;;10.60;99.90;;;;;;5094904;28;20028;-63
2024/01/22 03:15:43;;;;;;;2.90;2.00;;;10.60;99.90;;;;;;5094912;28;20028;-63
2024/01/22 03:18:08;;;;;;;2.90;2.08;;;10.50;99.90;;;;;;5094971;28;20036;-63
2024/01/22 03:20:35;;;;;;;2.63;1.73;;;10.40;99.90;;;;;;5094752;28;20032;-65
2024/01/22 03:23:01;;;;;;;4.22;2.30;;;10.40;99.90;;;;;;5094824;28;20517;-64
2024/01/22 03:25:26;;;;;;;4.38;2.22;;;10.40;99.90;;;;;;5094675;28;20024;-64
2024/01/22 03:27:52;;;;;;;2.63;1.83;;;10.40;99.90;;;;;;5094713;28;20036;-63
2024/01/22 03:30:18;;;;;;;3.72;1.92;;;10.50;99.90;;;;;;5094707;28;20021;-64
2024/01/22 03:32:43;;;;;;;3.38;2.25;;;10.50;99.90;;;;;;5093386;28;20048;-64
2024/01/22 03:35:09;;;;;;;3.55;2.10;;;10.50;99.90;;;;;;5094525;28;20036;-62
2024/01/22 03:37:34;;;;;;;3.85;2.10;;;10.50;99.90;;;;;;5094467;28;20033;-64
2024/01/22 03:40:00;;;;;;;4.18;2.22;;;10.50;99.90;;;;;;5094427;28;20040;-64
2024/01/22 03:42:26;;;;;;;3.78;1.92;;;10.50;99.90;;;;;;5094496;28;20033;-63
2024/01/22 03:44:53;;;;;;;3.42;2.20;;;10.60;99.90;;;;;;5094319;28;20024;-63
2024/01/22 03:47:18;;;;;;;4.38;1.80;;;10.60;99.90;;;;;;5094272;28;20020;-64
2024/01/22 03:49:44;;;;;;;3.60;2.15;;;10.60;99.90;;;;;;5094213;28;20046;-67
2024/01/22 03:52:10;;;;;;;2.90;2.00;;;10.60;99.90;;;;;;5094175;28;20029;-65
2024/01/22 03:54:35;;;;;;;4.75;1.73;;;10.70;99.90;;;;;;5093972;28;20021;-64
2024/01/22 03:57:06;;;;;;;4.65;2.40;;;10.60;99.90;;;;;;5094065;28;20491;-63
2024/01/22 03:59:35;;;;;;;3.05;2.28;;;10.60;99.90;;;;;;5093987;28;20028;-64
2024/01/22 04:02:01;;;;;;;3.25;1.98;;;10.60;99.90;;;;;;5093917;28;20048;-64
2024/01/22 04:04:26;;;;;;;2.88;2.03;;;10.60;99.90;;;;;;5093559;28;20060;-63
2024/01/22 04:06:52;;;;;;;3.08;2.20;;;10.60;99.90;;;;;;5093660;28;20039;-63
2024/01/22 04:09:17;;;;;;;2.92;1.83;;;10.50;99.90;;;;;;5093549;28;20028;-63
2024/01/22 04:11:43;;;;;;;4.22;2.08;;;10.50;99.90;;;;;;5093717;28;20033;-63
2024/01/22 04:14:09;;;;;;;4.65;2.25;;;10.50;99.90;;;;;;5093727;28;20032;-63
2024/01/22 04:16:34;;;;;;;2.97;1.90;;;10.50;99.90;;;;;;5093699;28;20032;-65
2024/01/22 04:19:00;;;;;;;2.40;1.90;;;10.50;99.90;;;;;;5093833;28;20028;-63
2024/01/22 04:21:28;;;;;;;3.58;2.28;;;10.50;99.90;;;;;;5093549;28;20115;-64
2024/01/22 04:23:53;;;;;;;3.15;2.05;;;10.50;99.90;;;;;;5093593;28;20025;-63
2024/01/22 04:26:19;;;;;;;4.68;2.05;;;10.50;99.90;;;;;;5093537;28;20044;-64
2024/01/22 04:28:45;;;;;;;2.83;1.83;;;10.50;99.90;;;;;;5093610;28;20029;-63
2024/01/22 04:31:11;;;;;;;3.30;2.03;;;10.50;99.90;;;;;;5093414;28;20035;-64
2024/01/22 04:33:37;;;;;;;3.22;2.10;;;10.50;99.90;;;;;;5093151;28;20056;-64
2024/01/22 04:36:03;;;;;;;3.67;1.80;;;10.50;99.90;;;;;;5093288;28;20032;-64
2024/01/22 04:38:30;;;;;;;2.80;1.70;;;10.50;99.90;;;;;;5093282;28;20020;-63
2024/01/22 04:40:56;;;;;;;3.75;1.80;;;10.50;99.90;;;;;;5093280;28;20017;-63
2024/01/22 04:43:21;;;;;;;3.60;1.90;;;10.50;99.90;;;;;;5093203;28;20028;-63
2024/01/22 04:45:48;;;;;;;2.80;1.80;;;10.50;99.90;;;;;;5093017;28;20024;-63
2024/01/22 04:48:13;;;;;;;3.13;1.80;;;10.50;99.90;;;;;;5093046;28;20028;-65
2024/01/22 04:50:39;;;;;;;2.17;1.77;;;10.50;99.90;;;;;;5093030;28;20028;-65
2024/01/22 04:53:05;;;;;;;2.05;1.50;;;10.60;99.90;;;;;;5093193;28;20076;-63
2024/01/22 04:55:30;;;;;;;6.10;1.88;;;10.60;99.90;;;;;;5092975;28;20094;-63
2024/01/22 04:57:56;;;;;;;4.78;1.77;;;10.60;99.90;;;;;;5093026;28;20021;-63
2024/01/22 05:00:22;;;;;;;3.53;1.85;;;10.60;99.90;;;;;;5092921;28;20037;-64
2024/01/22 05:02:47;;;;;;;3.40;1.55;;;10.70;99.90;;;;;;5092727;28;20025;-64
2024/01/22 05:05:13;;;;;;;3.17;1.77;;;10.70;99.90;;;;;;5091623;28;20079;-65
2024/01/22 05:07:39;;;;;;;2.78;1.50;;;10.70;99.90;;;;;;5092754;28;20033;-65
2024/01/22 05:10:09;;;;;;;2.63;1.70;;;10.70;99.90;;;;;;5092857;28;20036;-64
2024/01/22 05:12:36;;;;;;;2.80;1.50;;;10.70;99.90;;;;;;5092814;28;20023;-62
2024/01/22 05:15:01;;;;;;;3.35;1.63;;;10.70;99.90;;;;;;5092690;28;20024;-66
2024/01/22 05:17:28;;;;;;;3.28;1.55;;;10.80;99.90;;;;;;5092717;28;20024;-64
2024/01/22 05:19:54;;;;;;;3.10;1.50;;;10.80;99.90;;;;;;5091917;28;20013;-64
2024/01/22 05:22:20;;;;;;;3.03;1.45;;;10.80;99.90;;;;;;5092680;28;20020;-64
2024/01/22 05:24:46;;;;;;;2.22;1.40;;;10.80;99.90;;;;;;5092597;28;20084;-64
2024/01/22 05:27:12;;;;;;;3.10;1.52;;;10.80;99.90;;;;;;5092590;28;20028;-63
2024/01/22 05:29:37;;;;;;;3.55;1.58;;;10.90;99.90;;;;;;5092489;28;20032;-64
2024/01/22 05:32:04;;;;;;;2.42;1.20;;;10.90;99.90;;;;;;5092581;28;20036;-64
2024/01/22 05:34:29;;;;;;;2.25;1.55;;;10.90;99.90;;;;;;5092177;28;20418;-63
2024/01/22 05:36:55;;;;;;;2.47;1.38;;;10.90;99.90;;;;;;5092381;28;20028;-64
2024/01/22 05:39:21;;;;;;;3.22;1.40;;;10.90;99.90;;;;;;5092501;28;20025;-64
2024/01/22 05:41:47;;;;;;;1.80;1.40;;;11.00;99.90;;;;;;5092495;28;20027;-64
2024/01/22 05:44:12;;;;;;;2.38;1.40;;;11.00;99.90;;;;;;5092464;28;20029;-63
2024/01/22 05:46:39;;;;;;;3.35;1.25;;;11.10;99.90;;;;;;5092488;28;20035;-64
2024/01/22 05:49:05;;;;;;;2.78;1.00;;;11.10;99.90;;;;;;5092297;28;20479;-64
2024/01/22 05:51:31;;;;;;;3.00;1.20;;;11.10;99.90;;;;;;5092386;28;20021;-64
2024/01/22 05:53:59;;;;;;;2.50;1.17;;;11.10;99.90;;;;;;5092202;28;20052;-64
2024/01/22 05:56:26;;;;;;;3.42;1.40;;;11.20;99.90;;;;;;5092344;28;20017;-65
2024/01/22 05:58:53;;;;;;;2.90;0.85;;;11.20;99.90;;;;;;5092263;28;20023;-64
2024/01/22 06:01:26;;;;;;;1.80;1.08;;;11.20;99.90;;;;;;5092281;28;20021;-64
2024/01/22 06:03:52;;;;;;;1.40;1.20;;;11.20;99.90;;;;;;5090778;28;20051;-63
2024/01/22 06:06:18;;;;;;;3.88;1.38;;;11.30;99.90;;;;;;5092218;28;20036;-64
2024/01/22 06:08:45;;;;;;;2.92;1.23;;;11.30;99.90;;;;;;5092173;28;20040;-64
2024/01/22 06:11:11;;;;;;;3.25;1.00;;;11.40;99.90;;;;;;5092209;28;20032;-65
2024/01/22 06:13:41;;;;;;;4.80;1.10;;;11.40;99.90;;;;;;5092124;28;20038;-64
2024/01/22 06:16:10;;;;;;;2.47;1.08;;;11.40;99.90;;;;;;5092039;28;20502;-64
2024/01/22 06:18:37;;;;;;;2.95;1.13;;;11.40;99.90;;;;;;5092045;28;20020;-65
2024/01/22 06:21:04;;;;;;;3.65;1.30;;;11.40;99.90;;;;;;5092022;28;20028;-63
2024/01/22 06:23:30;;;;;;;2.78;1.00;;;11.40;99.90;;;;;;5092109;28;20021;-64
2024/01/22 06:25:59;;;;;;;2.50;0.98;;;11.40;99.90;;;;;;5092046;28;20017;-64
2024/01/22 06:28:25;;;;;;;3.20;1.20;;;11.40;99.90;;;;;;5092041;28;20024;-65
2024/01/22 06:30:52;;;;;;;2.72;1.00;;;11.50;99.90;;;;;;5091979;28;20024;-64
2024/01/22 06:33:18;;;;;;;3.50;1.30;;;11.40;99.90;;;;;;5095513;28;20024;-64
2024/01/22 06:35:44;;;;;;;1.65;1.10;;;11.40;99.90;;;;;;5095675;28;20029;-65
2024/01/22 06:38:11;;;;;;;4.20;1.38;;;11.40;99.90;;;;;;5095534;28;20028;-63
2024/01/22 06:40:36;;;;;;;3.25;1.35;;;11.40;99.90;;;;;;5095636;28;20056;-64
2024/01/22 06:43:02;;;;;;;2.53;0.90;;;11.40;99.90;;;;;;5095607;28;20051;-64
2024/01/22 06:45:27;;;;;;;4.30;1.35;;;11.40;99.90;;;;;;5095391;28;20067;-64
2024/01/22 06:47:53;;;;;;;2.47;1.02;;;11.40;99.90;;;;;;5095486;28;20029;-63
2024/01/22 06:50:19;;;;;;;2.67;1.23;;;11.40;99.90;;;;;;5095419;28;20029;-63
2024/01/22 06:52:47;;;;;;;1.98;1.00;;;11.40;99.90;;;;;;5095411;28;20028;-65
2024/01/22 06:55:13;;;;;;;2.05;1.17;;;11.40;99.90;;;;;;5095298;28;20182;-64
2024/01/22 06:57:39;;;;;;;4.72;1.13;;;11.40;99.90;;;;;;5095321;28;20059;-65
2024/01/22 07:00:12;;;;;;;2.38;0.90;;;11.40;99.90;;;;;;5095185;28;20024;-64
2024/01/22 07:02:38;;;;;;;3.40;1.17;;;11.40;99.90;;;;;;5095048;28;20044;-65
2024/01/22 07:05:05;;;;;;;3.10;1.00;;;11.40;99.90;;;;;;5094974;28;20056;-66
2024/01/22 07:07:31;;;;;;;4.38;1.13;;;11.50;99.90;;;;;;5095005;28;20029;-64
2024/01/22 07:09:57;;;;;;;1.95;0.95;;;11.50;99.90;;;;;;5095119;28;20035;-64
2024/01/22 07:12:23;;;;;;;2.88;1.13;;;11.60;99.90;;;;;;5095027;28;20020;-64
2024/01/22 07:14:49;;;;;;;1.25;0.80;;;11.60;99.90;;;;;;5094953;28;20025;-64
2024/01/22 07:17:21;;;;;;;1.98;0.80;;;11.70;99.90;;;;;;5094868;28;20027;-64
2024/01/22 07:19:46;;;;;;;1.90;0.88;;;11.70;99.90;;;;;;5094795;28;20040;-65
2024/01/22 07:22:12;;;;;;;2.33;1.15;;;11.70;99.90;;;;;;5094896;28;20465;-65
2024/01/22 07:24:38;;;;;;;1.50;1.15;;;11.70;99.90;;;;;;5094761;28;20096;-65
2024/01/22 07:27:04;;;;;;;1.73;1.13;;;11.60;99.90;;;;;;5094700;28;20032;-64
2024/01/22 07:29:32;;;;;;;1.30;1.00;;;11.60;99.90;;;;;;5094648;28;20051;-63
2024/01/22 07:31:58;;;;;;;2.20;0.90;;;11.60;99.90;;;;;;5094693;28;20036;-65
2024/01/22 07:34:25;;;;;;;1.55;1.05;;;11.60;99.90;;;;;;5094345;28;20040;-64
2024/01/22 07:36:51;;;;;;;3.08;1.20;;;11.60;99.90;;;;;;5094470;28;20009;-64
2024/01/22 07:39:17;;;;;;;3.38;1.02;;;11.60;99.90;;;;;;5094434;28;20063;-64
2024/01/22 07:41:42;;;;;;;4.30;1.20;;;11.70;99.90;;;;;;5094443;28;20024;-64
2024/01/22 07:44:08;;;;;;;3.53;1.10;;;11.70;99.90;;;;;;5093928;28;20044;-64
2024/01/22 07:46:34;;;;;;;2.10;1.10;;;11.70;99.90;;;;;;5094357;28;20025;-65
2024/01/22 07:49:00;;;;;;;5.07;1.00;;;11.70;99.90;;;;;;5094340;28;20024;-66
2024/01/22 07:51:26;;;;;;;2.78;1.33;;;11.70;99.90;;;;;;5094286;28;20036;-63
2024/01/22 07:53:51;;;;;;;3.85;1.33;;;11.70;99.90;;;;;;5094320;28;20037;-65
2024/01/22 07:56:17;;;;;;;4.90;1.27;;;11.70;99.90;;;;;;5094114;28;20025;-65
2024/01/22 07:58:43;;;;;;;4.20;1.38;;;11.70;99.90;;;;;;5094201;28;20028;-64
2024/01/22 08:01:09;;;;;;;4.90;1.17;;;11.70;99.90;;;;;;5093096;28;20028;-64
2024/01/22 08:03:35;;;;;;;2.55;1.05;;;11.80;99.90;;;;;;5093708;28;20055;-63
2024/01/22 08:06:01;;;;;;;6.70;1.30;;;11.80;99.90;;;;;;5093952;28;20028;-64
2024/01/22 08:08:28;;;;;;;3.08;1.10;;;11.80;99.90;;;;;;5093917;28;20021;-63
2024/01/22 08:10:53;;;;;;;5.53;1.27;;;11.90;99.90;;;;;;5093705;28;20031;-64
2024/01/22 08:13:20;;;;;;;5.35;1.65;;;11.80;99.90;;;;;;5093828;28;20029;-65
2024/01/22 08:15:49;;;;;;;5.43;1.58;;;11.80;99.90;;;;;;5093744;28;20051;-64
2024/01/22 08:18:15;;;;;;;7.72;1.63;;;11.70;99.90;;;;;;5093781;28;20024;-64
2024/01/22 08:20:41;;;;;;;8.90;1.35;;;11.70;99.90;;;;;;5093587;28;20181;-64
2024/01/22 08:23:07;;;;;;;4.68;1.20;;;11.80;99.90;;;;;;5093579;28;20099;-63
2024/01/22 08:25:33;;;;;;;5.15;1.33;;;11.70;99.90;;;;;;5093545;28;20033;-64
2024/01/22 08:28:00;;;;;;;5.97;1.48;;;11.80;99.90;;;;;;5093630;28;20060;-63
2024/01/22 08:30:26;;;;;;;6.97;1.60;;;11.70;99.90;;;;;;5093465;28;20024;-63
2024/01/22 08:32:52;;;;;;;8.02;1.75;;;11.70;99.90;;;;;;5092220;28;20021;-64
2024/01/22 08:35:19;;;;;;;11.20;1.88;;;11.70;99.90;;;;;;5092986;28;20028;-64
2024/01/22 08:37:50;;;;;;;11.38;1.73;;;11.70;99.90;;;;;;5092679;28;20092;-64
2024/01/22 08:40:19;;;;;;;12.15;2.25;;;11.60;99.90;;;;;;5092988;28;20021;-64
2024/01/22 08:42:49;;;;;;;12.18;1.92;;;11.60;99.90;;;;;;5092896;28;20020;-64
2024/01/22 08:45:15;;;;;;;10.38;3.08;;;11.50;99.90;;;;;;5092860;28;20032;-64
2024/01/22 08:47:44;;;;;;;15.32;2.28;;;11.50;99.90;;;;;;5092542;28;20017;-64
2024/01/22 08:50:11;;;;;;;10.43;1.80;;;11.50;99.90;;;;;;5092786;28;20178;-63
2024/01/22 08:52:37;;;;;;;12.45;1.90;;;11.50;99.90;;;;;;5092559;28;20067;-64
2024/01/22 08:55:05;;;;;;;9.65;1.63;;;11.50;99.90;;;;;;5091828;28;20029;-63
2024/01/22 08:57:31;;;;;;;4.13;1.17;;;11.50;99.90;;;;;;5092724;28;20025;-65
2024/01/22 08:59:57;;;;;;;9.38;1.23;;;11.40;99.90;;;;;;5092448;28;20027;-64
2024/01/22 09:02:23;;;;;;;8.63;1.55;;;11.40;99.90;;;;;;5092313;28;20048;-63
2024/01/22 09:04:48;;;;;;;11.27;2.10;;;11.40;99.90;;;;;;5092175;28;20079;-63
2024/01/22 09:07:14;;;;;;;10.10;2.08;;;11.40;99.90;;;;;;5092316;28;20032;-63
2024/01/22 09:09:41;;;;;;;11.90;2.17;;;11.40;99.90;;;;;;5092226;28;20040;-64
2024/01/22 09:12:07;;;;;;;11.20;2.00;;;11.40;99.90;;;;;;5092543;28;20479;-63
2024/01/22 09:14:32;;;;;;;12.35;3.10;;;11.40;99.90;;;;;;5092367;28;20080;-64
2024/01/22 09:16:58;;;;;;;5.22;1.80;;;11.40;99.90;;;;;;5092325;28;20033;-65
2024/01/22 09:19:23;;;;;;;10.82;1.70;;;11.40;99.90;;;;;;5092283;28;20056;-64
2024/01/22 09:21:49;;;;;;;8.48;1.63;;;11.40;99.90;;;;;;5091896;28;20090;-64
2024/01/22 09:24:15;;;;;;;10.77;1.50;;;11.40;99.90;;;;;;5092331;28;20036;-65
2024/01/22 09:26:40;;;;;;;15.18;2.25;;;11.40;99.90;;;;;;5092230;28;20107;-63
2024/01/22 09:29:06;;;;;;;10.50;2.25;;;11.50;99.90;;;;;;5092329;28;20360;-62
2024/01/22 09:31:32;;;;;;;12.88;2.75;;;11.50;99.90;;;;;;5092048;28;20029;-64
2024/01/22 09:33:58;;;;;;;8.32;1.58;;;11.40;99.90;;;;;;5091570;28;20067;-65
2024/01/22 09:36:23;;;;;;;14.10;2.00;;;11.50;99.90;;;;;;5092031;28;20024;-64
2024/01/22 09:38:49;;;;;;;11.20;2.28;;;11.40;99.90;;;;;;5092077;28;20035;-63
2024/01/22 09:41:15;;;;;;;9.50;1.67;;;11.40;99.90;;;;;;5092028;28;20024;-64
2024/01/22 09:43:42;;;;;;;11.05;1.92;;;11.40;99.90;;;;;;5091807;28;20025;-64
2024/01/22 09:46:08;;;;;;;11.35;2.22;;;11.40;99.90;;;;;;5092079;28;20033;-64
2024/01/22 09:48:35;;;;;;;9.50;1.58;;;11.40;99.90;;;;;;5092010;28;20042;-65
2024/01/22 09:51:04;;;;;;;11.30;2.03;;;11.50;99.90;;;;;;5091999;28;20021;-65
2024/01/22 09:53:34;;;;;;;13.38;2.88;;;11.40;99.90;;;;;;5091837;28;20028;-66
2024/01/22 09:56:02;;;;;;;13.20;3.47;;;11.50;99.90;;;;;;5091816;28;20017;-63
2024/01/22 09:58:30;;;;;;;11.35;3.00;;;11.50;99.90;;;;;;5091989;28;20029;-63
2024/01/22 10:00:56;;;;;;;11.25;2.10;;;11.40;99.90;;;;;;5091901;28;20031;-63
2024/01/22 10:03:23;;;;;;;9.68;1.38;;;11.50;99.90;;;;;;5091233;28;20025;-64
2024/01/22 10:05:51;;;;;;;8.73;1.55;;;11.50;99.90;;;;;;5091517;28;20023;-65
2024/01/22 10:08:17;;;;;;;8.70;1.65;;;11.50;99.90;;;;;;5095898;28;20059;-65
2024/01/22 10:10:42;;;;;;;7.70;1.60;;;11.50;99.90;;;;;;5095848;28;20016;-65
2024/01/22 10:13:08;;;;;;;3.53;1.10;;;11.40;99.90;;;;;;5095856;28;20169;-63
2024/01/22 10:15:35;;;;;;;7.93;1.70;;;11.40;99.90;;;;;;5095555;28;20025;-65
2024/01/22 10:18:10;;;;;;;4.78;1.48;;;11.40;99.90;;;;;;5095555;28;20031;-63
2024/01/22 10:20:37;;;;;;;8.82;1.17;;;11.30;99.90;;;;;;5095634;28;20048;-63
2024/01/22 10:23:03;;;;;;;7.70;1.23;;;10.80;99.90;;;;;;5095685;28;20016;-65
2024/01/22 10:25:30;;;;;;;6.70;1.10;;;10.40;99.90;;;;;;5095650;28;20032;-63
2024/01/22 10:28:08;;;;;;;8.65;1.38;;;10.10;99.90;;;;;;5095385;28;20032;-64
2024/01/22 10:30:37;;;;;;;9.07;1.02;;;9.90;99.90;;;;;;5095399;28;20075;-63
2024/01/22 10:33:09;;;;;;;10.05;1.25;;;9.70;99.90;;;;;;5095075;28;20024;-64
2024/01/22 10:35:35;;;;;;;6.15;1.23;;;9.60;99.90;;;;;;5095178;28;20488;-64
2024/01/22 10:38:11;;;;;;;5.60;0.80;;;9.50;99.90;;;;;;5095203;28;20033;-62
2024/01/22 10:40:38;;;;;;;8.23;1.70;;;9.50;99.90;;;;;;5095390;28;20056;-63
2024/01/22 10:43:26;;;;;;;19.40;4.95;;;9.40;99.90;;;;;;5095135;28;20028;-63
2024/01/22 10:45:54;;;;;;;18.27;3.63;;;9.40;99.90;;;;;;5094857;28;20016;-64
2024/01/22 10:48:27;;;;;;;18.10;4.53;;;9.40;99.90;;;;;;5095128;28;20025;-64
2024/01/22 10:50:52;;;;;;;;;;;9.40;99.90;;;;;;5095461;28;20050;-64
2024/01/22 10:53:19;;;;;;;6.90;1.58;;;9.30;99.90;;;;;;5094896;28;19908;-65
2024/01/22 10:55:59;;;;;;;11.93;3.30;;;9.20;99.90;;;;;;5094619;28;20059;-63
2024/01/22 10:58:36;;;;;;;12.35;2.10;;;9.20;99.90;;;;;;5095045;28;20023;-64
2024/01/22 11:01:11;;;;;;;15.00;3.58;;;9.20;99.90;;;;;;5093833;28;20016;-63
2024/01/22 11:03:47;;;;;;;11.45;1.42;;;9.20;99.90;;;;;;5094159;28;20116;-64
2024/01/22 11:06:18;;;;;;;10.75;2.53;;;9.20;99.90;;;;;;5094853;28;20492;-64
2024/01/22 11:08:48;;;;;;;14.68;1.73;;;9.20;99.90;;;;;;5094687;28;20084;-64
2024/01/22 11:11:14;;;;;;;14.70;2.35;;;9.30;99.90;;;;;;5094782;28;20016;-62
2024/01/22 11:13:40;;;;;;;15.88;2.70;;;9.30;99.90;;;;;;5094292;28;20109;-64
2024/01/22 11:16:06;;;;;;;11.10;2.15;;;9.30;99.90;;;;;;5094463;28;20017;-64
2024/01/22 11:18:31;;;;;;;16.92;3.08;;;9.30;99.90;;;;;;5093472;28;20028;-64
2024/01/22 11:21:18;;;;;;;13.57;1.88;;;9.40;99.90;;;;;;5094381;28;20036;-63
2024/01/22 11:24:23;;;;;;;11.65;2.22;;;9.40;99.90;;;;;;5094108;28;20020;-64
2024/01/22 11:26:51;;;;;;;6.55;1.85;;;9.50;99.90;;;;;;5093881;28;20048;-63
2024/01/22 11:29:26;;;;;;;10.90;3.42;;;9.50;99.90;;;;;;5094233;28;20020;-64
2024/01/22 11:31:51;;;;;;;13.88;2.55;;;9.50;99.90;;;;;;5093789;28;20027;-64
2024/01/22 11:34:39;;;;;;;19.60;2.58;;;9.50;99.90;;;;;;5092941;28;20032;-62
2024/01/22 11:37:04;;;;;;;11.43;2.67;;;9.50;99.90;;;;;;5093846;28;20114;-64
2024/01/22 11:39:50;;;;;;;21.00;3.70;;;9.50;99.90;;;;;;5094125;28;20053;-64
2024/01/22 11:42:16;;;;;;;20.65;2.58;;;9.60;99.90;;;;;;5093802;28;20066;-63
2024/01/22 11:44:48;;;;;;;17.30;2.90;;;9.60;99.90;;;;;;5093966;28;20029;-65
2024/01/22 11:47:14;;;;;;;18.27;3.67;;;9.60;99.90;;;;;;5093949;28;20017;-63
2024/01/22 11:49:40;;;;;;;16.40;4.15;;;9.60;99.90;;;;;;5093433;28;20028;-64
2024/01/22 11:52:17;;;;;;;18.98;3.33;;;9.70;99.90;;;;;;5093878;28;20032;-64
2024/01/22 11:54:57;;;;;;;17.85;2.92;;;9.80;99.90;;;;;;5088117;28;20021;-63
2024/01/22 11:57:24;;;;;;;22.00;3.47;;;9.90;99.90;;;;;;5073262;28;20104;-66
2024/01/22 11:59:57;;;;;;;16.10;2.72;;;10.00;99.90;;;;;;5072292;28;20028;-66
2024/01/22 12:02:22;;;;;;;24.88;4.25;;;10.20;99.90;;;;;;5070895;28;20024;-64
2024/01/22 12:04:48;;;;;;;17.60;3.05;;;10.30;99.90;;;;;;5054455;28;20057;-63
2024/01/22 12:07:13;;;;;;;20.85;3.25;;;10.40;99.90;;;;;;5072629;28;20064;-64
2024/01/22 12:09:39;;;;;;;22.30;4.78;;;10.50;99.90;;;;;;5073032;28;20059;-65
2024/01/22 12:12:05;;;;;;;21.13;2.80;;;10.60;99.90;;;;;;5073366;28;20038;-63
2024/01/22 12:14:30;;;;;;;26.92;4.53;;;10.70;99.90;;;;;;5073041;28;20104;-65
2024/01/22 12:17:03;;;;;;;24.67;5.63;;;10.80;99.90;;;;;;5073382;28;20052;-64
2024/01/22 12:19:30;;;;;;;19.92;3.88;;;11.00;99.90;;;;;;5073249;28;20072;-63
2024/01/22 12:21:56;;;;;;;26.08;4.50;;;11.10;99.90;;;;;;5072828;28;20024;-64
2024/01/22 12:24:22;;;;;;;12.95;2.83;;;11.20;99.90;;;;;;5073298;28;20044;-63
2024/01/22 12:26:52;;;;;;;21.08;3.65;;;11.30;99.90;;;;;;5073072;28;20029;-65
2024/01/22 12:29:25;;;;;;;17.45;3.85;;;11.40;99.90;;;;;;5072821;28;20029;-64
2024/01/22 12:32:09;;;;;;;16.00;3.10;;;11.50;99.90;;;;;;5072663;28;20434;-64
2024/01/22 12:34:34;;;;;;;16.60;3.00;;;11.50;99.90;;;;;;5072650;28;20021;-64
2024/01/22 12:37:18;;;;;;;21.00;2.13;;;11.50;99.90;;;;;;5072816;28;20029;-67
2024/01/22 12:39:44;;;;;;;21.40;4.05;;;11.40;99.90;;;;;;5072533;28;20047;-65
2024/01/22 12:42:18;;;;;;;18.15;2.83;;;11.50;99.90;;;;;;5072826;28;20021;-66
2024/01/22 12:44:55;;;;;;;18.92;2.63;;;11.50;99.90;;;;;;5072712;28;20028;-64
2024/01/22 12:47:21;;;;;;;16.58;2.50;;;11.50;99.90;;;;;;5072653;28;20040;-65